sensor_id;sensor_type;location;lat;lon;timestamp;pressure;altitude;pressure_sealevel;temperature;humidity
28448;BME280;15675;52.870;-1.416;2023-04-15T00:01:59;100522.50;;;8.31;100.00
28448;BME280;15675;52.870;-1.416;2023-04-15T00:04:25;100530.28;;;8.36;100.00
28448;BME280;15675;52.870;-1.416;2023-04-15T00:06:52;100523.16;;;8.13;100.00
28448;BME280;15675;52.870;-1.416;2023-04-15T00:09:18;100535.63;;;8.48;100.00
28448;BME280;15675;52.870;-1.416;2023-04-15T00:11:44;100532.38;;;8.71;100.00
28448;BME280;15675;52.870;-1.416;2023-04-15T00:14:11;100532.97;;;8.45;100.00
28448;BME280;15675;52.870;-1.416;2023-04-15T00:16:37;100531.94;;;8.29;100.00
28448;BME280;15675;52.870;-1.416;2023-04-15T00:19:03;100532.88;;;8.37;100.00
28448;BME280;15675;52.870;-1.416;2023-04-15T00:21:29;100539.81;;;8.41;100.00
28448;BME280;15675;52.870;-1.416;2023-04-15T00:23:55;100538.19;;;8.46;100.00
28448;BME280;15675;52.870;-1.416;2023-04-15T00:26:20;100544.34;;;8.59;100.00
28448;BME280;15675;52.870;-1.416;2023-04-15T00:28:46;100548.78;;;8.74;100.00
28448;BME280;15675;52.870;-1.416;2023-04-15T00:31:12;100547.88;;;8.69;100.00
28448;BME280;15675;52.870;-1.416;2023-04-15T00:33:37;100557.78;;;8.27;100.00
28448;BME280;15675;52.870;-1.416;2023-04-15T00:36:03;100568.97;;;8.26;100.00
28448;BME280;15675;52.870;-1.416;2023-04-15T00:38:30;100565.88;;;8.57;100.00
28448;BME280;15675;52.870;-1.416;2023-04-15T00:40:56;100573.34;;;8.32;100.00
28448;BME280;15675;52.870;-1.416;2023-04-15T00:43:21;100567.59;;;8.58;100.00
28448;BME280;15675;52.870;-1.416;2023-04-15T00:45:46;100578.94;;;7.91;100.00
28448;BME280;15675;52.870;-1.416;2023-04-15T00:48:12;100570.75;;;8.32;100.00
28448;BME280;15675;52.870;-1.416;2023-04-15T00:50:38;100583.03;;;8.47;100.00
28448;BME280;15675;52.870;-1.416;2023-04-15T00:53:03;100585.41;;;8.30;100.00
28448;BME280;15675;52.870;-1.416;2023-04-15T00:55:29;100590.81;;;8.50;100.00
28448;BME280;15675;52.870;-1.416;2023-04-15T00:57:56;100586.16;;;8.20;100.00
28448;BME280;15675;52.870;-1.416;2023-04-15T01:00:21;100598.88;;;8.01;100.00
28448;BME280;15675;52.870;-1.416;2023-04-15T01:02:47;100602.03;;;7.78;100.00
28448;BME280;15675;52.870;-1.416;2023-04-15T01:05:13;100608.06;;;7.79;100.00
28448;BME280;15675;52.870;-1.416;2023-04-15T01:07:42;100613.00;;;7.64;100.00
28448;BME280;15675;52.870;-1.416;2023-04-15T01:10:07;100619.47;;;7.97;100.00
28448;BME280;15675;52.870;-1.416;2023-04-15T01:12:33;100622.19;;;8.07;100.00
28448;BME280;15675;52.870;-1.416;2023-04-15T01:14:59;100624.78;;;8.07;100.00
28448;BME280;15675;52.870;-1.416;2023-04-15T01:17:26;100621.44;;;8.15;100.00
28448;BME280;15675;52.870;-1.416;2023-04-15T01:19:55;100630.34;;;8.40;100.00
28448;BME280;15675;52.870;-1.416;2023-04-15T01:22:22;100638.06;;;8.35;100.00
28448;BME280;15675;52.870;-1.416;2023-04-15T01:25:00;100651.59;;;8.14;100.00
28448;BME280;15675;52.870;-1.416;2023-04-15T01:27:30;100651.38;;;7.99;100.00
28448;BME280;15675;52.870;-1.416;2023-04-15T01:29:56;100653.28;;;8.13;100.00
28448;BME280;15675;52.870;-1.416;2023-04-15T01:32:22;100664.38;;;8.03;100.00
28448;BME280;15675;52.870;-1.416;2023-04-15T01:34:48;100671.16;;;7.97;100.00
28448;BME280;15675;52.870;-1.416;2023-04-15T01:37:14;100673.81;;;8.00;100.00
28448;BME280;15675;52.870;-1.416;2023-04-15T01:39:39;100674.00;;;8.15;100.00
28448;BME280;15675;52.870;-1.416;2023-04-15T01:42:05;100674.94;;;8.20;100.00
28448;BME280;15675;52.870;-1.416;2023-04-15T01:44:31;100675.97;;;8.36;100.00
28448;BME280;15675;52.870;-1.416;2023-04-15T01:46:56;100674.28;;;8.35;100.00
28448;BME280;15675;52.870;-1.416;2023-04-15T01:49:22;100670.28;;;8.63;100.00
28448;BME280;15675;52.870;-1.416;2023-04-15T01:51:48;100677.63;;;9.06;100.00
28448;BME280;15675;52.870;-1.416;2023-04-15T01:54:13;100677.66;;;9.08;100.00
28448;BME280;15675;52.870;-1.416;2023-04-15T01:56:39;100673.38;;;9.14;100.00
28448;BME280;15675;52.870;-1.416;2023-04-15T01:59:04;100673.03;;;8.77;100.00
28448;BME280;15675;52.870;-1.416;2023-04-15T02:01:30;100681.97;;;8.34;100.00
28448;BME280;15675;52.870;-1.416;2023-04-15T02:03:59;100691.91;;;8.00;100.00
28448;BME280;15675;52.870;-1.416;2023-04-15T02:06:28;100689.69;;;7.66;100.00
28448;BME280;15675;52.870;-1.416;2023-04-15T02:08:53;100712.22;;;7.76;100.00
28448;BME280;15675;52.870;-1.416;2023-04-15T02:11:19;100715.97;;;7.94;100.00
28448;BME280;15675;52.870;-1.416;2023-04-15T02:13:44;100710.03;;;8.01;100.00
28448;BME280;15675;52.870;-1.416;2023-04-15T02:16:17;100708.94;;;7.85;100.00
28448;BME280;15675;52.870;-1.416;2023-04-15T02:18:44;100714.69;;;7.67;100.00
28448;BME280;15675;52.870;-1.416;2023-04-15T02:21:10;100718.28;;;7.77;100.00
28448;BME280;15675;52.870;-1.416;2023-04-15T02:23:35;100726.09;;;7.82;100.00
28448;BME280;15675;52.870;-1.416;2023-04-15T02:26:01;100727.59;;;7.66;100.00
28448;BME280;15675;52.870;-1.416;2023-04-15T02:28:26;100734.75;;;7.30;100.00
28448;BME280;15675;52.870;-1.416;2023-04-15T02:30:52;100737.19;;;7.22;100.00
28448;BME280;15675;52.870;-1.416;2023-04-15T02:33:20;100735.88;;;7.46;100.00
28448;BME280;15675;52.870;-1.416;2023-04-15T02:35:45;100740.00;;;7.90;100.00
28448;BME280;15675;52.870;-1.416;2023-04-15T02:38:11;100735.47;;;7.75;100.00
28448;BME280;15675;52.870;-1.416;2023-04-15T02:40:38;100741.44;;;7.72;100.00
28448;BME280;15675;52.870;-1.416;2023-04-15T02:43:04;100748.13;;;7.58;100.00
28448;BME280;15675;52.870;-1.416;2023-04-15T02:45:31;100747.22;;;7.56;100.00
28448;BME280;15675;52.870;-1.416;2023-04-15T02:47:57;100753.97;;;7.48;100.00
28448;BME280;15675;52.870;-1.416;2023-04-15T02:50:22;100758.88;;;7.32;100.00
28448;BME280;15675;52.870;-1.416;2023-04-15T02:52:49;100755.09;;;7.13;100.00
28448;BME280;15675;52.870;-1.416;2023-04-15T02:55:16;100755.19;;;7.18;100.00
28448;BME280;15675;52.870;-1.416;2023-04-15T02:57:42;100762.38;;;7.88;100.00
28448;BME280;15675;52.870;-1.416;2023-04-15T03:00:08;100755.63;;;7.98;100.00
28448;BME280;15675;52.870;-1.416;2023-04-15T03:02:37;100769.63;;;8.12;100.00
28448;BME280;15675;52.870;-1.416;2023-04-15T03:05:04;100773.31;;;7.71;100.00
28448;BME280;15675;52.870;-1.416;2023-04-15T03:07:30;100781.34;;;7.88;100.00
28448;BME280;15675;52.870;-1.416;2023-04-15T03:09:56;100776.69;;;7.67;100.00
28448;BME280;15675;52.870;-1.416;2023-04-15T03:12:22;100776.69;;;7.66;100.00
28448;BME280;15675;52.870;-1.416;2023-04-15T03:14:47;100780.13;;;7.68;100.00
28448;BME280;15675;52.870;-1.416;2023-04-15T03:17:13;100789.84;;;7.32;100.00
28448;BME280;15675;52.870;-1.416;2023-04-15T03:19:38;100799.22;;;7.76;100.00
28448;BME280;15675;52.870;-1.416;2023-04-15T03:22:04;100803.22;;;7.57;100.00
28448;BME280;15675;52.870;-1.416;2023-04-15T03:24:29;100807.38;;;8.01;100.00
28448;BME280;15675;52.870;-1.416;2023-04-15T03:26:55;100808.06;;;7.89;100.00
28448;BME280;15675;52.870;-1.416;2023-04-15T03:29:22;100809.88;;;7.94;100.00
28448;BME280;15675;52.870;-1.416;2023-04-15T03:31:48;100811.91;;;8.16;100.00
28448;BME280;15675;52.870;-1.416;2023-04-15T03:34:13;100815.97;;;7.98;100.00
28448;BME280;15675;52.870;-1.416;2023-04-15T03:36:39;100811.69;;;7.48;100.00
28448;BME280;15675;52.870;-1.416;2023-04-15T03:39:04;100819.84;;;7.73;100.00
28448;BME280;15675;52.870;-1.416;2023-04-15T03:41:30;100818.88;;;8.18;100.00
28448;BME280;15675;52.870;-1.416;2023-04-15T03:43:57;100818.69;;;8.07;100.00
28448;BME280;15675;52.870;-1.416;2023-04-15T03:46:22;100817.03;;;8.11;100.00
28448;BME280;15675;52.870;-1.416;2023-04-15T03:48:48;100822.47;;;8.29;100.00
28448;BME280;15675;52.870;-1.416;2023-04-15T03:51:14;100831.06;;;8.28;100.00
28448;BME280;15675;52.870;-1.416;2023-04-15T03:53:39;100835.25;;;8.20;100.00
28448;BME280;15675;52.870;-1.416;2023-04-15T03:56:05;100836.88;;;8.15;100.00
28448;BME280;15675;52.870;-1.416;2023-04-15T03:58:31;100839.16;;;8.50;100.00
28448;BME280;15675;52.870;-1.416;2023-04-15T04:00:56;100839.44;;;8.12;100.00
28448;BME280;15675;52.870;-1.416;2023-04-15T04:03:22;100845.88;;;8.39;100.00
28448;BME280;15675;52.870;-1.416;2023-04-15T04:05:48;100842.00;;;8.67;100.00
28448;BME280;15675;52.870;-1.416;2023-04-15T04:08:13;100841.66;;;8.44;100.00
28448;BME280;15675;52.870;-1.416;2023-04-15T04:10:41;100845.41;;;8.64;100.00
28448;BME280;15675;52.870;-1.416;2023-04-15T04:13:06;100851.81;;;8.91;100.00
28448;BME280;15675;52.870;-1.416;2023-04-15T04:15:32;100839.81;;;8.35;100.00
28448;BME280;15675;52.870;-1.416;2023-04-15T04:17:58;100857.22;;;8.45;100.00
28448;BME280;15675;52.870;-1.416;2023-04-15T04:20:23;100857.53;;;8.69;100.00
28448;BME280;15675;52.870;-1.416;2023-04-15T04:22:49;100860.34;;;8.86;100.00
28448;BME280;15675;52.870;-1.416;2023-04-15T04:25:14;100856.53;;;9.26;100.00
28448;BME280;15675;52.870;-1.416;2023-04-15T04:27:40;100855.84;;;9.43;100.00
28448;BME280;15675;52.870;-1.416;2023-04-15T04:30:06;100870.09;;;8.44;100.00
28448;BME280;15675;52.870;-1.416;2023-04-15T04:32:32;100865.00;;;8.47;100.00
28448;BME280;15675;52.870;-1.416;2023-04-15T04:34:57;100867.53;;;8.44;100.00
28448;BME280;15675;52.870;-1.416;2023-04-15T04:37:23;100868.91;;;8.23;100.00
28448;BME280;15675;52.870;-1.416;2023-04-15T04:39:49;100874.50;;;7.96;100.00
28448;BME280;15675;52.870;-1.416;2023-04-15T04:42:14;100883.19;;;8.00;100.00
28448;BME280;15675;52.870;-1.416;2023-04-15T04:44:40;100884.91;;;8.01;100.00
28448;BME280;15675;52.870;-1.416;2023-04-15T04:47:05;100891.41;;;8.29;100.00
28448;BME280;15675;52.870;-1.416;2023-04-15T04:49:32;100895.81;;;8.35;100.00
28448;BME280;15675;52.870;-1.416;2023-04-15T04:51:58;100903.88;;;8.52;100.00
28448;BME280;15675;52.870;-1.416;2023-04-15T04:54:23;100898.75;;;8.03;100.00
28448;BME280;15675;52.870;-1.416;2023-04-15T04:56:49;100907.97;;;8.40;100.00
28448;BME280;15675;52.870;-1.416;2023-04-15T04:59:14;100915.28;;;8.66;100.00
28448;BME280;15675;52.870;-1.416;2023-04-15T05:01:40;100930.34;;;8.95;100.00
28448;BME280;15675;52.870;-1.416;2023-04-15T05:04:06;100924.91;;;8.76;100.00
28448;BME280;15675;52.870;-1.416;2023-04-15T05:06:32;100932.16;;;8.42;100.00
28448;BME280;15675;52.870;-1.416;2023-04-15T05:08:58;100937.06;;;8.80;100.00
28448;BME280;15675;52.870;-1.416;2023-04-15T05:11:23;100948.66;;;8.48;100.00
28448;BME280;15675;52.870;-1.416;2023-04-15T05:13:49;100951.47;;;8.61;100.00
28448;BME280;15675;52.870;-1.416;2023-04-15T05:16:14;100957.91;;;8.88;100.00
28448;BME280;15675;52.870;-1.416;2023-04-15T05:18:40;100969.88;;;8.28;100.00
28448;BME280;15675;52.870;-1.416;2023-04-15T05:21:06;100979.28;;;8.24;100.00
28448;BME280;15675;52.870;-1.416;2023-04-15T05:23:32;100987.16;;;7.83;100.00
28448;BME280;15675;52.870;-1.416;2023-04-15T05:25:58;100996.69;;;7.87;100.00
28448;BME280;15675;52.870;-1.416;2023-04-15T05:28:23;100985.41;;;7.82;100.00
28448;BME280;15675;52.870;-1.416;2023-04-15T05:30:49;100986.19;;;8.25;100.00
28448;BME280;15675;52.870;-1.416;2023-04-15T05:33:14;100988.66;;;8.19;100.00
28448;BME280;15675;52.870;-1.416;2023-04-15T05:35:40;100994.59;;;8.13;100.00
28448;BME280;15675;52.870;-1.416;2023-04-15T05:38:05;101004.50;;;7.90;100.00
28448;BME280;15675;52.870;-1.416;2023-04-15T05:40:31;101003.44;;;8.26;100.00
28448;BME280;15675;52.870;-1.416;2023-04-15T05:42:57;101004.72;;;8.47;100.00
28448;BME280;15675;52.870;-1.416;2023-04-15T05:45:22;101019.50;;;8.56;100.00
28448;BME280;15675;52.870;-1.416;2023-04-15T05:47:47;101024.41;;;7.94;100.00
28448;BME280;15675;52.870;-1.416;2023-04-15T05:50:15;101024.75;;;8.13;100.00
28448;BME280;15675;52.870;-1.416;2023-04-15T05:52:41;101029.16;;;8.66;100.00
28448;BME280;15675;52.870;-1.416;2023-04-15T05:55:06;101034.06;;;8.51;100.00
28448;BME280;15675;52.870;-1.416;2023-04-15T05:57:32;101041.28;;;8.20;100.00
28448;BME280;15675;52.870;-1.416;2023-04-15T05:59:57;101053.59;;;8.35;100.00
28448;BME280;15675;52.870;-1.416;2023-04-15T06:02:23;101052.38;;;8.14;100.00
28448;BME280;15675;52.870;-1.416;2023-04-15T06:04:48;101052.22;;;8.06;100.00
28448;BME280;15675;52.870;-1.416;2023-04-15T06:07:14;101063.25;;;7.98;100.00
28448;BME280;15675;52.870;-1.416;2023-04-15T06:09:39;101066.44;;;8.30;100.00
28448;BME280;15675;52.870;-1.416;2023-04-15T06:12:05;101070.56;;;8.66;100.00
28448;BME280;15675;52.870;-1.416;2023-04-15T06:14:37;101081.22;;;8.36;100.00
28448;BME280;15675;52.870;-1.416;2023-04-15T06:17:02;101083.03;;;8.40;100.00
28448;BME280;15675;52.870;-1.416;2023-04-15T06:19:28;101078.31;;;8.66;100.00
28448;BME280;15675;52.870;-1.416;2023-04-15T06:21:53;101090.78;;;8.40;100.00
28448;BME280;15675;52.870;-1.416;2023-04-15T06:24:19;101093.66;;;8.54;100.00
28448;BME280;15675;52.870;-1.416;2023-04-15T06:26:45;101093.03;;;8.69;100.00
28448;BME280;15675;52.870;-1.416;2023-04-15T06:29:10;101099.69;;;8.54;100.00
28448;BME280;15675;52.870;-1.416;2023-04-15T06:31:36;101096.38;;;8.61;100.00
28448;BME280;15675;52.870;-1.416;2023-04-15T06:34:01;101107.44;;;8.53;100.00
28448;BME280;15675;52.870;-1.416;2023-04-15T06:36:27;101115.56;;;8.74;100.00
28448;BME280;15675;52.870;-1.416;2023-04-15T06:38:52;101114.22;;;8.48;100.00
28448;BME280;15675;52.870;-1.416;2023-04-15T06:41:18;101120.53;;;8.63;100.00
28448;BME280;15675;52.870;-1.416;2023-04-15T06:43:43;101122.94;;;8.51;100.00
28448;BME280;15675;52.870;-1.416;2023-04-15T06:46:09;101118.06;;;8.68;100.00
28448;BME280;15675;52.870;-1.416;2023-04-15T06:48:35;101137.72;;;8.16;100.00
28448;BME280;15675;52.870;-1.416;2023-04-15T06:51:00;101135.81;;;8.48;100.00
28448;BME280;15675;52.870;-1.416;2023-04-15T06:53:26;101132.59;;;8.61;100.00
28448;BME280;15675;52.870;-1.416;2023-04-15T06:55:52;101134.84;;;8.92;100.00
28448;BME280;15675;52.870;-1.416;2023-04-15T06:58:17;101128.94;;;9.01;100.00
28448;BME280;15675;52.870;-1.416;2023-04-15T07:00:43;101132.59;;;9.12;100.00
28448;BME280;15675;52.870;-1.416;2023-04-15T07:03:11;101135.63;;;8.88;100.00
28448;BME280;15675;52.870;-1.416;2023-04-15T07:05:37;101145.94;;;8.85;100.00
28448;BME280;15675;52.870;-1.416;2023-04-15T07:08:03;101155.06;;;8.62;100.00
28448;BME280;15675;52.870;-1.416;2023-04-15T07:10:29;101157.78;;;8.70;100.00
28448;BME280;15675;52.870;-1.416;2023-04-15T07:12:55;101165.69;;;8.78;100.00
28448;BME280;15675;52.870;-1.416;2023-04-15T07:15:21;101165.72;;;9.31;100.00
28448;BME280;15675;52.870;-1.416;2023-04-15T07:17:47;101178.16;;;9.01;100.00
28448;BME280;15675;52.870;-1.416;2023-04-15T07:20:13;101180.34;;;8.77;100.00
28448;BME280;15675;52.870;-1.416;2023-04-15T07:22:39;101181.53;;;8.49;100.00
28448;BME280;15675;52.870;-1.416;2023-04-15T07:25:05;101197.75;;;8.43;100.00
28448;BME280;15675;52.870;-1.416;2023-04-15T07:27:32;101200.91;;;8.27;100.00
28448;BME280;15675;52.870;-1.416;2023-04-15T07:29:57;101210.91;;;8.98;100.00
28448;BME280;15675;52.870;-1.416;2023-04-15T07:32:23;101211.25;;;9.17;100.00
28448;BME280;15675;52.870;-1.416;2023-04-15T07:34:48;101216.41;;;9.15;100.00
28448;BME280;15675;52.870;-1.416;2023-04-15T07:37:14;101222.50;;;9.19;100.00
28448;BME280;15675;52.870;-1.416;2023-04-15T07:39:39;101225.72;;;8.58;100.00
28448;BME280;15675;52.870;-1.416;2023-04-15T07:42:05;101227.16;;;8.90;100.00
28448;BME280;15675;52.870;-1.416;2023-04-15T07:44:31;101229.66;;;9.34;100.00
28448;BME280;15675;52.870;-1.416;2023-04-15T07:46:56;101242.44;;;9.23;100.00
28448;BME280;15675;52.870;-1.416;2023-04-15T07:49:22;101239.03;;;9.27;100.00
28448;BME280;15675;52.870;-1.416;2023-04-15T07:51:47;101244.91;;;9.17;100.00
28448;BME280;15675;52.870;-1.416;2023-04-15T07:54:14;101245.16;;;9.29;100.00
28448;BME280;15675;52.870;-1.416;2023-04-15T07:56:39;101262.59;;;9.41;100.00
28448;BME280;15675;52.870;-1.416;2023-04-15T07:59:05;101269.28;;;9.27;100.00
28448;BME280;15675;52.870;-1.416;2023-04-15T08:01:31;101255.66;;;9.39;100.00
28448;BME280;15675;52.870;-1.416;2023-04-15T08:03:58;101267.66;;;9.33;100.00
28448;BME280;15675;52.870;-1.416;2023-04-15T08:06:23;101266.31;;;9.07;100.00
28448;BME280;15675;52.870;-1.416;2023-04-15T08:08:49;101271.00;;;9.26;100.00
28448;BME280;15675;52.870;-1.416;2023-04-15T08:11:15;101282.16;;;9.22;100.00
28448;BME280;15675;52.870;-1.416;2023-04-15T08:13:41;101278.72;;;9.25;100.00
28448;BME280;15675;52.870;-1.416;2023-04-15T08:16:22;101285.69;;;9.27;100.00
28448;BME280;15675;52.870;-1.416;2023-04-15T08:18:51;101288.84;;;9.61;100.00
28448;BME280;15675;52.870;-1.416;2023-04-15T08:21:18;101294.09;;;9.64;100.00
28448;BME280;15675;52.870;-1.416;2023-04-15T08:23:45;101295.31;;;9.87;100.00
28448;BME280;15675;52.870;-1.416;2023-04-15T08:26:11;101301.25;;;9.78;100.00
28448;BME280;15675;52.870;-1.416;2023-04-15T08:28:38;101311.88;;;9.44;100.00
28448;BME280;15675;52.870;-1.416;2023-04-15T08:31:04;101309.53;;;9.58;100.00
28448;BME280;15675;52.870;-1.416;2023-04-15T08:33:29;101309.19;;;9.38;100.00
28448;BME280;15675;52.870;-1.416;2023-04-15T08:35:55;101319.16;;;9.64;100.00
28448;BME280;15675;52.870;-1.416;2023-04-15T08:38:22;101323.81;;;9.85;100.00
28448;BME280;15675;52.870;-1.416;2023-04-15T08:40:48;101322.94;;;9.86;100.00
28448;BME280;15675;52.870;-1.416;2023-04-15T08:43:21;101329.59;;;9.68;100.00
28448;BME280;15675;52.870;-1.416;2023-04-15T08:45:51;101328.47;;;10.06;100.00
28448;BME280;15675;52.870;-1.416;2023-04-15T08:48:17;101337.16;;;10.08;100.00
28448;BME280;15675;52.870;-1.416;2023-04-15T08:50:43;101337.44;;;10.28;100.00
28448;BME280;15675;52.870;-1.416;2023-04-15T08:53:10;101337.91;;;10.02;100.00
28448;BME280;15675;52.870;-1.416;2023-04-15T08:55:41;101339.84;;;10.16;100.00
28448;BME280;15675;52.870;-1.416;2023-04-15T08:58:08;101342.09;;;9.94;100.00
28448;BME280;15675;52.870;-1.416;2023-04-15T09:00:35;101347.75;;;10.24;100.00
28448;BME280;15675;52.870;-1.416;2023-04-15T09:03:03;101352.41;;;10.43;100.00
28448;BME280;15675;52.870;-1.416;2023-04-15T09:05:31;101351.25;;;10.27;100.00
28448;BME280;15675;52.870;-1.416;2023-04-15T09:07:57;101360.25;;;10.48;100.00
28448;BME280;15675;52.870;-1.416;2023-04-15T09:10:23;101361.16;;;10.51;100.00
28448;BME280;15675;52.870;-1.416;2023-04-15T09:12:48;101372.50;;;10.03;100.00
28448;BME280;15675;52.870;-1.416;2023-04-15T09:15:14;101368.31;;;9.59;100.00
28448;BME280;15675;52.870;-1.416;2023-04-15T09:17:44;101375.69;;;9.85;100.00
28448;BME280;15675;52.870;-1.416;2023-04-15T09:20:12;101365.84;;;9.67;100.00
28448;BME280;15675;52.870;-1.416;2023-04-15T09:22:38;101382.44;;;9.77;100.00
28448;BME280;15675;52.870;-1.416;2023-04-15T09:25:24;101380.88;;;9.87;100.00
28448;BME280;15675;52.870;-1.416;2023-04-15T09:28:02;101386.81;;;10.33;100.00
28448;BME280;15675;52.870;-1.416;2023-04-15T09:30:28;101394.41;;;10.19;100.00
28448;BME280;15675;52.870;-1.416;2023-04-15T09:32:59;101387.91;;;10.47;100.00
28448;BME280;15675;52.870;-1.416;2023-04-15T09:35:27;101397.66;;;10.62;100.00
28448;BME280;15675;52.870;-1.416;2023-04-15T09:38:05;101404.47;;;10.56;100.00
28448;BME280;15675;52.870;-1.416;2023-04-15T09:40:40;101404.13;;;10.91;100.00
28448;BME280;15675;52.870;-1.416;2023-04-15T09:43:07;101404.72;;;11.42;100.00
28448;BME280;15675;52.870;-1.416;2023-04-15T09:45:34;101402.81;;;11.27;100.00
28448;BME280;15675;52.870;-1.416;2023-04-15T09:48:25;101397.78;;;11.39;100.00
28448;BME280;15675;52.870;-1.416;2023-04-15T09:50:52;101401.50;;;10.91;100.00
28448;BME280;15675;52.870;-1.416;2023-04-15T09:53:23;101393.72;;;10.91;100.00
28448;BME280;15675;52.870;-1.416;2023-04-15T09:55:49;101404.44;;;11.17;100.00
28448;BME280;15675;52.870;-1.416;2023-04-15T09:58:31;101404.22;;;11.80;100.00
28448;BME280;15675;52.870;-1.416;2023-04-15T10:01:04;101418.06;;;11.74;100.00
28448;BME280;15675;52.870;-1.416;2023-04-15T10:03:32;101414.72;;;11.84;100.00
28448;BME280;15675;52.870;-1.416;2023-04-15T10:05:59;101422.44;;;11.80;100.00
28448;BME280;15675;52.870;-1.416;2023-04-15T10:08:30;101427.72;;;11.87;100.00
28448;BME280;15675;52.870;-1.416;2023-04-15T10:10:57;101421.56;;;11.76;100.00
28448;BME280;15675;52.870;-1.416;2023-04-15T10:13:25;101435.44;;;11.78;100.00
28448;BME280;15675;52.870;-1.416;2023-04-15T10:15:56;101432.69;;;11.64;100.00
28448;BME280;15675;52.870;-1.416;2023-04-15T10:18:24;101434.44;;;11.67;100.00
28448;BME280;15675;52.870;-1.416;2023-04-15T10:20:52;101436.34;;;11.80;100.00
28448;BME280;15675;52.870;-1.416;2023-04-15T10:23:18;101434.88;;;12.07;100.00
28448;BME280;15675;52.870;-1.416;2023-04-15T10:25:45;101439.13;;;11.96;100.00
28448;BME280;15675;52.870;-1.416;2023-04-15T10:28:11;101437.31;;;11.91;100.00
28448;BME280;15675;52.870;-1.416;2023-04-15T10:30:37;101442.94;;;12.36;100.00
28448;BME280;15675;52.870;-1.416;2023-04-15T10:33:04;101449.06;;;12.45;100.00
28448;BME280;15675;52.870;-1.416;2023-04-15T10:35:30;101451.25;;;11.98;100.00
28448;BME280;15675;52.870;-1.416;2023-04-15T10:37:57;101453.22;;;12.22;100.00
28448;BME280;15675;52.870;-1.416;2023-04-15T10:40:28;101450.69;;;12.30;100.00
28448;BME280;15675;52.870;-1.416;2023-04-15T10:42:56;101452.22;;;12.08;100.00
28448;BME280;15675;52.870;-1.416;2023-04-15T10:45:25;101446.50;;;12.51;100.00
28448;BME280;15675;52.870;-1.416;2023-04-15T10:47:56;101457.75;;;12.48;100.00
28448;BME280;15675;52.870;-1.416;2023-04-15T10:50:25;101463.28;;;11.88;100.00
28448;BME280;15675;52.870;-1.416;2023-04-15T10:52:51;101467.00;;;12.12;99.94
28448;BME280;15675;52.870;-1.416;2023-04-15T10:55:22;101455.97;;;12.42;100.00
28448;BME280;15675;52.870;-1.416;2023-04-15T10:57:58;101456.91;;;12.49;100.00
28448;BME280;15675;52.870;-1.416;2023-04-15T11:00:26;101448.41;;;12.81;99.73
28448;BME280;15675;52.870;-1.416;2023-04-15T11:03:05;101465.75;;;12.70;98.74
28448;BME280;15675;52.870;-1.416;2023-04-15T11:08:05;101481.28;;;12.56;97.29
28448;BME280;15675;52.870;-1.416;2023-04-15T11:13:15;101484.56;;;12.35;95.73
28448;BME280;15675;52.870;-1.416;2023-04-15T11:15:45;101490.09;;;12.78;95.88
28448;BME280;15675;52.870;-1.416;2023-04-15T11:20:41;101490.16;;;12.89;92.10
28448;BME280;15675;52.870;-1.416;2023-04-15T11:23:09;101491.19;;;13.12;93.18
28448;BME280;15675;52.870;-1.416;2023-04-15T11:25:35;101496.56;;;13.42;94.90
28448;BME280;15675;52.870;-1.416;2023-04-15T11:28:04;101496.63;;;13.59;91.08
28448;BME280;15675;52.870;-1.416;2023-04-15T11:30:34;101498.97;;;13.11;92.48
28448;BME280;15675;52.870;-1.416;2023-04-15T11:33:06;101506.00;;;13.20;88.85
28448;BME280;15675;52.870;-1.416;2023-04-15T11:35:33;101493.97;;;13.46;89.40
28448;BME280;15675;52.870;-1.416;2023-04-15T11:38:11;101500.00;;;13.38;86.34
28448;BME280;15675;52.870;-1.416;2023-04-15T11:40:38;101510.31;;;13.18;87.22
28448;BME280;15675;52.870;-1.416;2023-04-15T11:43:11;101518.09;;;13.07;86.86
28448;BME280;15675;52.870;-1.416;2023-04-15T11:45:46;101519.56;;;12.71;90.91
28448;BME280;15675;52.870;-1.416;2023-04-15T11:48:12;101524.88;;;12.83;93.23
28448;BME280;15675;52.870;-1.416;2023-04-15T11:50:38;101532.78;;;12.94;95.81
28448;BME280;15675;52.870;-1.416;2023-04-15T11:53:09;101536.13;;;12.77;95.89
28448;BME280;15675;52.870;-1.416;2023-04-15T11:55:46;101535.69;;;12.28;97.89
28448;BME280;15675;52.870;-1.416;2023-04-15T11:58:21;101538.63;;;12.65;97.75
28448;BME280;15675;52.870;-1.416;2023-04-15T12:00:56;101544.59;;;12.52;99.34
28448;BME280;15675;52.870;-1.416;2023-04-15T12:03:24;101545.75;;;12.88;97.47
28448;BME280;15675;52.870;-1.416;2023-04-15T12:13:53;101536.47;;;13.32;87.51
28448;BME280;15675;52.870;-1.416;2023-04-15T12:16:19;101550.31;;;13.20;87.98
28448;BME280;15675;52.870;-1.416;2023-04-15T12:18:46;101551.19;;;13.22;86.28
28448;BME280;15675;52.870;-1.416;2023-04-15T12:21:13;101546.03;;;13.31;86.31
28448;BME280;15675;52.870;-1.416;2023-04-15T12:23:53;101551.38;;;13.54;86.55
28448;BME280;15675;52.870;-1.416;2023-04-15T12:26:45;101555.78;;;13.72;85.23
28448;BME280;15675;52.870;-1.416;2023-04-15T12:29:12;101554.13;;;13.88;83.51
28448;BME280;15675;52.870;-1.416;2023-04-15T12:31:51;101556.69;;;13.76;83.53
28448;BME280;15675;52.870;-1.416;2023-04-15T12:34:29;101550.56;;;13.72;84.90
28448;BME280;15675;52.870;-1.416;2023-04-15T12:36:55;101539.34;;;13.89;83.57
28448;BME280;15675;52.870;-1.416;2023-04-15T12:39:26;101543.75;;;14.05;82.48
28448;BME280;15675;52.870;-1.416;2023-04-15T12:41:53;101543.78;;;14.24;82.18
28448;BME280;15675;52.870;-1.416;2023-04-15T12:44:20;101542.84;;;13.94;82.28
28448;BME280;15675;52.870;-1.416;2023-04-15T12:46:46;101556.69;;;13.73;80.48
28448;BME280;15675;52.870;-1.416;2023-04-15T12:49:12;101558.34;;;13.55;79.84
28448;BME280;15675;52.870;-1.416;2023-04-15T12:51:39;101556.81;;;14.16;79.52
28448;BME280;15675;52.870;-1.416;2023-04-15T12:54:05;101566.41;;;14.34;80.23